createdAt,value
2019-05-30T00:01:42.040Z,99.90
2019-05-30T00:04:10.466Z,99.90
2019-05-30T00:06:38.925Z,99.90
2019-05-30T00:09:09.071Z,99.90
2019-05-30T00:11:37.850Z,99.90
2019-05-30T00:14:06.358Z,99.90
2019-05-30T00:16:40.963Z,99.90
2019-05-30T00:19:09.394Z,99.90
2019-05-30T00:21:38.147Z,99.90
2019-05-30T00:24:08.314Z,99.90
2019-05-30T00:26:37.261Z,99.90
2019-05-30T00:29:06.686Z,99.90
2019-05-30T00:31:35.225Z,99.90
2019-05-30T00:34:04.239Z,99.90
2019-05-30T00:36:32.962Z,99.90
2019-05-30T00:39:03.911Z,99.90
2019-05-30T00:41:32.777Z,99.90
2019-05-30T00:44:02.131Z,99.90
2019-05-30T00:46:30.743Z,99.90
2019-05-30T00:49:00.177Z,99.90
2019-05-30T00:51:28.798Z,99.90
2019-05-30T00:53:58.622Z,99.90
2019-05-30T00:56:27.376Z,99.90
2019-05-30T00:58:56.476Z,99.90
2019-05-30T01:01:25.194Z,99.90
2019-05-30T01:03:54.650Z,99.90
2019-05-30T01:06:23.128Z,99.90
2019-05-30T01:08:51.583Z,99.90
2019-05-30T01:11:20.007Z,99.90
2019-05-30T01:13:49.635Z,99.90
2019-05-30T01:16:18.482Z,99.90
2019-05-30T01:18:47.597Z,99.90
2019-05-30T01:21:16.858Z,99.90
2019-05-30T01:23:46.149Z,99.90
2019-05-30T01:26:14.920Z,99.90
2019-05-30T01:28:48.792Z,99.90
2019-05-30T01:31:17.741Z,99.90
2019-05-30T01:33:46.182Z,99.90
2019-05-30T01:36:14.907Z,99.90
2019-05-30T01:38:43.693Z,99.90
2019-05-30T01:41:12.124Z,99.90
2019-05-30T01:43:40.572Z,99.90
2019-05-30T01:46:09.000Z,99.90
2019-05-30T01:48:37.737Z,99.90
2019-05-30T01:51:06.563Z,99.90
2019-05-30T01:53:35.567Z,99.90
2019-05-30T01:56:04.800Z,99.90
2019-05-30T01:58:33.736Z,99.90
2019-05-30T02:01:17.074Z,99.90
2019-05-30T02:03:32.331Z,99.90
2019-05-30T02:06:01.029Z,99.90
2019-05-30T02:08:29.666Z,99.90
2019-05-30T02:10:59.183Z,99.90
2019-05-30T02:13:28.135Z,99.90
2019-05-30T02:15:57.140Z,99.90
2019-05-30T02:18:25.926Z,99.90
2019-05-30T02:20:54.342Z,99.90
2019-05-30T02:23:23.116Z,99.90
2019-05-30T02:25:51.873Z,99.90
2019-05-30T02:28:20.671Z,99.90
2019-05-30T02:30:49.087Z,99.90
2019-05-30T02:33:17.536Z,99.90
2019-05-30T02:35:45.953Z,99.90
2019-05-30T02:38:23.274Z,99.90
2019-05-30T02:40:51.697Z,99.90
2019-05-30T02:43:20.142Z,99.90
2019-05-30T02:45:48.873Z,99.90
2019-05-30T02:48:17.667Z,99.90
2019-05-30T02:50:46.088Z,99.90
2019-05-30T02:53:14.528Z,99.90
2019-05-30T02:55:43.890Z,99.90
2019-05-30T02:58:13.327Z,99.90
2019-05-30T03:00:41.922Z,99.90
2019-05-30T03:03:14.244Z,99.90
2019-05-30T03:05:43.528Z,99.90
2019-05-30T03:08:14.265Z,99.90
2019-05-30T03:10:42.741Z,99.90
2019-05-30T03:13:12.878Z,99.90
2019-05-30T03:15:42.073Z,99.90
2019-05-30T03:18:12.806Z,99.90
2019-05-30T03:20:40.872Z,99.90
2019-05-30T03:23:10.417Z,99.90
2019-05-30T03:25:39.630Z,99.90
2019-05-30T03:28:09.058Z,99.90
2019-05-30T03:30:38.909Z,99.90
2019-05-30T03:33:24.320Z,99.90
2019-05-30T03:35:42.850Z,99.90
2019-05-30T03:38:10.478Z,99.90
2019-05-30T03:40:38.707Z,99.90
2019-05-30T03:43:09.208Z,99.90
2019-05-30T03:45:58.678Z,99.90
2019-05-30T03:48:29.051Z,99.90
2019-05-30T03:51:18.347Z,99.90
2019-05-30T03:53:47.546Z,99.90
2019-05-30T03:56:19.072Z,99.90
2019-05-30T03:58:59.649Z,99.90
2019-05-30T04:01:54.053Z,99.90
2019-05-30T04:04:49.862Z,99.90
2019-05-30T04:07:23.637Z,99.90
2019-05-30T04:10:13.487Z,99.90
2019-05-30T04:13:03.336Z,99.90
2019-05-30T04:15:33.283Z,99.90
2019-05-30T04:18:02.280Z,99.90
2019-05-30T04:20:31.974Z,99.90
2019-05-30T04:23:00.843Z,99.90
2019-05-30T04:25:29.288Z,99.90
2019-05-30T04:27:58.034Z,99.90
2019-05-30T04:30:26.516Z,99.90
2019-05-30T04:33:21.068Z,99.90
2019-05-30T04:35:37.071Z,99.90
2019-05-30T04:38:05.602Z,99.90
2019-05-30T04:40:34.103Z,99.90
2019-05-30T04:43:02.545Z,99.90
2019-05-30T04:45:30.998Z,99.90
2019-05-30T04:47:59.812Z,99.90
2019-05-30T04:50:28.291Z,99.90
2019-05-30T04:52:56.786Z,99.90
2019-05-30T04:55:25.200Z,99.90
2019-05-30T04:57:53.902Z,99.90
2019-05-30T05:00:22.606Z,99.90
2019-05-30T05:02:51.045Z,99.90
2019-05-30T05:05:25.950Z,99.90
2019-05-30T05:07:50.613Z,99.90
2019-05-30T05:10:20.436Z,99.70
2019-05-30T05:12:48.992Z,99.20
2019-05-30T05:15:18.674Z,98.90
2019-05-30T05:17:47.284Z,98.30
2019-05-30T05:20:17.248Z,96.90
2019-05-30T05:22:45.773Z,96.10
2019-05-30T05:25:15.418Z,96.20
2019-05-30T05:27:44.011Z,95.00
2019-05-30T05:30:14.416Z,94.30
2019-05-30T05:32:43.188Z,93.00
2019-05-30T05:35:11.932Z,92.20
2019-05-30T05:37:40.648Z,91.20
2019-05-30T05:40:09.150Z,90.10
2019-05-30T05:42:37.598Z,88.30
2019-05-30T05:45:10.733Z,89.50
2019-05-30T05:47:39.180Z,90.00
2019-05-30T05:50:08.178Z,90.10
2019-05-30T05:52:36.620Z,89.50
2019-05-30T05:55:06.224Z,89.40
2019-05-30T05:57:35.925Z,87.50
2019-05-30T06:00:06.888Z,90.30
2019-05-30T06:02:35.652Z,90.60
2019-05-30T06:05:07.216Z,90.30
2019-05-30T06:07:35.660Z,91.40
2019-05-30T06:10:24.251Z,92.30
2019-05-30T06:12:53.029Z,93.00
2019-05-30T06:15:22.936Z,94.00
2019-05-30T06:17:51.950Z,94.50
2019-05-30T06:20:43.560Z,94.50
2019-05-30T06:23:13.273Z,94.90
2019-05-30T06:25:41.706Z,94.40
2019-05-30T06:28:10.154Z,94.40
2019-05-30T06:30:38.596Z,94.70
2019-05-30T06:33:07.041Z,95.10
2019-05-30T06:35:36.472Z,94.90
2019-05-30T06:38:05.167Z,94.10
2019-05-30T06:40:35.665Z,94.10
2019-05-30T06:43:04.147Z,94.90
2019-05-30T06:45:32.660Z,94.90
2019-05-30T06:48:01.099Z,95.40
2019-05-30T06:50:30.915Z,95.50
2019-05-30T06:52:59.564Z,95.50
2019-05-30T06:55:29.412Z,95.20
2019-05-30T06:57:58.074Z,95.10
2019-05-30T07:00:28.007Z,94.70
2019-05-30T07:02:56.611Z,94.80
2019-05-30T07:05:28.510Z,94.20
2019-05-30T07:07:57.188Z,94.50
2019-05-30T07:10:26.789Z,93.70
2019-05-30T07:12:55.366Z,93.90
2019-05-30T07:15:25.060Z,93.50
2019-05-30T07:17:53.678Z,92.90
2019-05-30T07:20:24.000Z,91.80
2019-05-30T07:22:52.802Z,90.80
2019-05-30T07:25:21.670Z,90.80
2019-05-30T07:27:50.386Z,91.00
2019-05-30T07:30:20.408Z,92.30
2019-05-30T07:32:48.853Z,91.90
2019-05-30T07:35:17.904Z,90.70
2019-05-30T07:37:46.898Z,89.80
2019-05-30T07:40:19.481Z,88.10
2019-05-30T07:42:46.224Z,87.50
2019-05-30T07:45:15.384Z,85.80
2019-05-30T07:47:44.095Z,85.40
2019-05-30T07:50:12.808Z,83.20
2019-05-30T07:52:50.069Z,80.70
2019-05-30T07:55:18.577Z,80.80
2019-05-30T07:57:47.912Z,81.40
2019-05-30T08:00:35.710Z,81.80
2019-05-30T08:03:04.285Z,82.70
2019-05-30T08:05:32.783Z,83.80
2019-05-30T08:08:02.568Z,85.60
2019-05-30T08:10:31.999Z,88.20
2019-05-30T08:13:00.979Z,88.40
2019-05-30T08:15:29.545Z,88.70
2019-05-30T08:17:58.366Z,90.00
2019-05-30T08:20:27.645Z,89.90
2019-05-30T08:22:56.208Z,87.60
2019-05-30T08:25:24.942Z,83.50
2019-05-30T08:27:53.368Z,82.50
2019-05-30T08:30:22.314Z,81.40
2019-05-30T08:32:50.755Z,78.60
2019-05-30T08:35:19.907Z,80.00
2019-05-30T08:37:48.332Z,81.80
2019-05-30T08:40:16.843Z,83.10
2019-05-30T08:42:45.292Z,83.80
2019-05-30T08:45:16.690Z,85.20
2019-05-30T08:47:45.147Z,85.90
2019-05-30T08:50:14.616Z,87.30
2019-05-30T08:52:43.041Z,85.40
2019-05-30T08:55:11.922Z,86.60
2019-05-30T08:57:41.012Z,87.10
2019-05-30T09:00:12.299Z,86.40
2019-05-30T09:02:41.050Z,85.50
2019-05-30T09:05:10.747Z,84.50
2019-05-30T09:07:40.206Z,86.10
2019-05-30T09:10:10.308Z,88.00
2019-05-30T09:12:41.000Z,88.90
2019-05-30T09:15:14.115Z,89.40
2019-05-30T09:17:44.608Z,90.30
2019-05-30T09:20:14.088Z,90.20
2019-05-30T09:22:43.733Z,90.90
2019-05-30T09:25:13.339Z,90.60
2019-05-30T09:27:42.949Z,90.60
2019-05-30T09:30:13.783Z,90.70
2019-05-30T09:32:43.189Z,90.30
2019-05-30T09:35:13.232Z,90.90
2019-05-30T09:37:42.482Z,91.10
2019-05-30T09:40:32.876Z,91.40
2019-05-30T09:43:01.331Z,91.70
2019-05-30T09:45:30.202Z,91.80
2019-05-30T09:47:58.634Z,92.00
2019-05-30T09:50:27.969Z,92.10
2019-05-30T09:52:56.416Z,92.30
2019-05-30T09:55:25.208Z,91.80
2019-05-30T09:57:53.683Z,92.00
2019-05-30T10:00:24.126Z,92.00
2019-05-30T10:02:52.715Z,92.00
2019-05-30T10:05:24.460Z,91.60
2019-05-30T10:07:52.996Z,91.40
2019-05-30T10:10:22.340Z,91.60
2019-05-30T10:12:50.776Z,90.40
2019-05-30T10:15:20.441Z,90.70
2019-05-30T10:17:51.784Z,90.80
2019-05-30T10:20:20.061Z,90.80
2019-05-30T10:22:50.807Z,90.60
2019-05-30T10:25:20.701Z,90.50
2019-05-30T10:27:52.155Z,90.40
2019-05-30T10:30:21.432Z,90.50
2019-05-30T10:32:51.886Z,90.60
2019-05-30T10:35:21.687Z,90.70
2019-05-30T10:37:50.945Z,91.20
2019-05-30T10:40:20.076Z,90.80
2019-05-30T10:42:49.591Z,90.90
2019-05-30T10:45:20.791Z,91.00
2019-05-30T10:47:51.389Z,90.70
2019-05-30T10:50:20.356Z,90.50
2019-05-30T10:52:49.496Z,90.00
2019-05-30T10:55:19.409Z,89.40
2019-05-30T10:57:48.622Z,89.50
2019-05-30T11:00:21.335Z,90.00
2019-05-30T11:02:51.084Z,90.20
2019-05-30T11:05:20.315Z,90.10
2019-05-30T11:08:06.111Z,90.40
2019-05-30T11:10:40.670Z,90.20
2019-05-30T11:13:11.933Z,90.70
2019-05-30T11:15:40.352Z,90.70
2019-05-30T11:18:08.952Z,91.10
2019-05-30T11:20:37.830Z,91.30
2019-05-30T11:23:06.589Z,90.80
2019-05-30T11:25:35.472Z,91.00
2019-05-30T11:28:05.358Z,91.00
2019-05-30T11:30:33.860Z,91.40
2019-05-30T11:33:10.430Z,91.50
2019-05-30T11:35:39.184Z,91.20
2019-05-30T11:38:07.621Z,91.10
2019-05-30T11:40:37.009Z,91.40
2019-05-30T11:43:05.456Z,91.40
2019-05-30T11:45:34.317Z,91.60
2019-05-30T11:48:02.828Z,91.20
2019-05-30T11:50:31.497Z,91.40
2019-05-30T11:53:00.238Z,91.90
2019-05-30T11:55:48.181Z,91.70
2019-05-30T11:58:19.606Z,92.10
2019-05-30T12:00:47.168Z,92.20
2019-05-30T12:03:15.971Z,92.40
2019-05-30T12:05:45.362Z,92.70
2019-05-30T12:08:14.172Z,93.00
2019-05-30T12:10:42.605Z,93.30
2019-05-30T12:13:11.054Z,93.50
2019-05-30T12:15:39.811Z,93.50
2019-05-30T12:18:08.504Z,93.10
2019-05-30T12:20:36.965Z,93.20
2019-05-30T12:23:05.453Z,93.00
2019-05-30T12:25:33.889Z,92.50
2019-05-30T12:28:04.109Z,92.50
2019-05-30T12:30:32.657Z,92.30
2019-05-30T12:33:02.477Z,92.10
2019-05-30T12:35:32.304Z,92.10
2019-05-30T12:38:05.056Z,92.00
2019-05-30T12:40:31.933Z,91.60
2019-05-30T12:43:03.064Z,91.70
2019-05-30T12:45:31.212Z,91.30
2019-05-30T12:47:59.723Z,91.50
2019-05-30T12:50:28.233Z,91.90
2019-05-30T12:52:57.605Z,92.40
2019-05-30T12:55:26.266Z,92.30
2019-05-30T12:57:54.796Z,91.80
2019-05-30T13:00:28.967Z,92.20
2019-05-30T13:02:57.404Z,91.80
2019-05-30T13:05:26.208Z,92.00
2019-05-30T13:08:12.065Z,92.20
2019-05-30T13:10:25.977Z,92.40
2019-05-30T13:12:55.542Z,92.40
2019-05-30T13:15:25.926Z,92.50
2019-05-30T13:17:55.740Z,92.40
2019-05-30T13:20:24.816Z,92.40
2019-05-30T13:22:53.688Z,92.20
2019-05-30T13:25:23.206Z,92.10
2019-05-30T13:27:51.893Z,91.80
2019-05-30T13:30:21.118Z,91.90
2019-05-30T13:32:51.571Z,92.10
2019-05-30T13:35:20.612Z,91.70
2019-05-30T13:37:49.332Z,91.50
2019-05-30T13:40:24.986Z,91.70
2019-05-30T13:42:48.647Z,91.90
2019-05-30T13:45:17.733Z,92.60
2019-05-30T13:47:46.241Z,93.50
2019-05-30T13:50:16.263Z,93.40
2019-05-30T13:52:45.001Z,93.50
2019-05-30T13:55:13.847Z,93.70
2019-05-30T13:57:42.359Z,94.00
2019-05-30T14:00:13.208Z,94.30
2019-05-30T14:02:42.111Z,94.30
2019-05-30T14:05:12.253Z,94.50
2019-05-30T14:07:40.685Z,94.70
2019-05-30T14:10:10.766Z,94.80
2019-05-30T14:12:39.744Z,94.90
2019-05-30T14:15:14.443Z,95.10
2019-05-30T14:17:50.378Z,95.10
2019-05-30T14:20:19.757Z,95.10
2019-05-30T14:22:48.203Z,95.30
2019-05-30T14:25:17.237Z,94.70
2019-05-30T14:27:45.936Z,94.40
2019-05-30T14:30:14.708Z,94.40
2019-05-30T14:32:43.136Z,94.30
2019-05-30T14:35:13.928Z,94.30
2019-05-30T14:37:42.832Z,94.40
2019-05-30T14:40:16.200Z,94.30
2019-05-30T14:42:44.717Z,94.50
2019-05-30T14:45:16.835Z,94.50
2019-05-30T14:47:45.412Z,94.20
2019-05-30T14:50:14.682Z,94.40
2019-05-30T14:52:43.370Z,94.50
2019-05-30T14:55:14.397Z,95.10
2019-05-30T14:57:42.844Z,95.10
2019-05-30T15:00:17.920Z,95.40
2019-05-30T15:02:47.748Z,95.50
2019-05-30T15:05:23.101Z,95.50
2019-05-30T15:07:51.553Z,95.20
2019-05-30T15:10:20.340Z,95.60
2019-05-30T15:12:49.057Z,95.80
2019-05-30T15:15:18.912Z,95.70
2019-05-30T15:17:48.428Z,95.50
2019-05-30T15:20:18.408Z,95.70
2019-05-30T15:22:47.759Z,95.90
2019-05-30T15:25:17.967Z,96.00
2019-05-30T15:28:06.044Z,96.00
2019-05-30T15:30:34.610Z,96.20
2019-05-30T15:33:03.859Z,96.60
2019-05-30T15:35:33.104Z,96.50
2019-05-30T15:38:01.689Z,96.60
2019-05-30T15:40:30.452Z,96.50
2019-05-30T15:43:00.960Z,96.90
2019-05-30T15:45:29.133Z,97.00
2019-05-30T15:47:57.643Z,97.10
2019-05-30T15:50:26.219Z,97.10
2019-05-30T15:52:54.941Z,97.20
2019-05-30T15:55:24.940Z,97.30
2019-05-30T15:57:53.389Z,97.30
2019-05-30T16:00:22.691Z,97.60
2019-05-30T16:02:52.246Z,97.90
2019-05-30T16:05:21.432Z,98.20
2019-05-30T16:07:50.226Z,98.50
2019-05-30T16:10:28.074Z,99.00
2019-05-30T16:12:56.812Z,98.90
2019-05-30T16:15:25.269Z,99.10
2019-05-30T16:17:53.709Z,99.20
2019-05-30T16:20:22.139Z,99.20
2019-05-30T16:22:50.987Z,99.40
2019-05-30T16:25:19.780Z,99.50
2019-05-30T16:27:48.348Z,99.80
2019-05-30T16:30:22.021Z,99.50
2019-05-30T16:32:49.133Z,99.70
2019-05-30T16:35:20.468Z,99.80
2019-05-30T16:37:49.797Z,99.90
2019-05-30T16:40:18.452Z,99.90
2019-05-30T16:42:46.964Z,99.90
2019-05-30T16:45:20.223Z,99.90
2019-05-30T16:47:49.209Z,99.90
2019-05-30T16:50:18.949Z,99.90
2019-05-30T16:52:47.470Z,99.90
2019-05-30T16:55:17.094Z,99.90
2019-05-30T16:57:45.741Z,99.90
2019-05-30T17:00:15.679Z,99.90
2019-05-30T17:02:45.452Z,99.90
2019-05-30T17:05:18.354Z,99.90
2019-05-30T17:07:48.606Z,99.90
2019-05-30T17:10:23.306Z,99.90
2019-05-30T17:12:48.018Z,99.90
2019-05-30T17:15:17.668Z,99.90
2019-05-30T17:17:51.062Z,99.90
2019-05-30T17:20:20.542Z,99.90
2019-05-30T17:22:49.253Z,99.90
2019-05-30T17:25:19.054Z,99.90
2019-05-30T17:27:47.616Z,99.90
2019-05-30T17:30:17.495Z,99.90
2019-05-30T17:32:46.333Z,99.90
2019-05-30T17:35:15.604Z,99.90
2019-05-30T17:37:44.311Z,99.90
2019-05-30T17:40:13.980Z,99.90
2019-05-30T17:42:44.764Z,99.90
2019-05-30T17:45:13.959Z,99.90
2019-05-30T17:47:42.572Z,99.90
2019-05-30T17:50:13.282Z,99.90
2019-05-30T17:52:42.084Z,99.90
2019-05-30T17:55:12.628Z,99.90
2019-05-30T17:57:42.984Z,99.90
2019-05-30T18:00:13.980Z,99.90
2019-05-30T18:02:42.609Z,99.90
2019-05-30T18:05:13.432Z,99.90
2019-05-30T18:07:42.195Z,99.90
2019-05-30T18:10:13.656Z,99.90
2019-05-30T18:12:42.445Z,99.90
2019-05-30T18:15:13.384Z,99.90
2019-05-30T18:17:41.811Z,99.90
2019-05-30T18:20:11.303Z,99.90
2019-05-30T18:22:41.909Z,99.90
2019-05-30T18:25:11.861Z,99.90
2019-05-30T18:27:40.300Z,99.90
2019-05-30T18:30:10.124Z,99.90
2019-05-30T18:32:38.560Z,99.90
2019-05-30T18:35:07.778Z,99.90
2019-05-30T18:37:37.552Z,99.90
2019-05-30T18:40:10.388Z,99.90
2019-05-30T18:42:38.852Z,99.90
2019-05-30T18:45:12.725Z,99.90
2019-05-30T18:47:42.183Z,99.90
2019-05-30T18:50:11.033Z,99.90
2019-05-30T18:52:39.464Z,99.90
2019-05-30T18:55:08.440Z,99.90
2019-05-30T18:57:37.408Z,99.90
2019-05-30T19:00:25.541Z,99.90
2019-05-30T19:02:54.960Z,99.90
2019-05-30T19:05:24.452Z,99.90
2019-05-30T19:07:53.329Z,99.90
2019-05-30T19:10:22.687Z,99.90
2019-05-30T19:12:51.133Z,99.90
2019-05-30T19:15:19.924Z,99.90
2019-05-30T19:17:48.424Z,99.90
2019-05-30T19:20:18.688Z,99.90
2019-05-30T19:22:54.837Z,99.90
2019-05-30T19:25:23.677Z,99.90
2019-05-30T19:27:52.104Z,99.90
2019-05-30T19:30:20.992Z,99.90
2019-05-30T19:32:49.417Z,99.90
2019-05-30T19:35:18.524Z,99.90
2019-05-30T19:37:47.398Z,99.90
2019-05-30T19:40:17.466Z,99.90
2019-05-30T19:42:45.908Z,99.90
2019-05-30T19:45:16.348Z,99.90
2019-05-30T19:47:45.707Z,99.90
2019-05-30T19:50:16.396Z,99.90
2019-05-30T19:52:46.867Z,99.90
2019-05-30T19:55:15.481Z,99.90
2019-05-30T19:57:43.911Z,99.90
2019-05-30T20:00:14.112Z,99.90
2019-05-30T20:02:42.558Z,99.90
2019-05-30T20:05:12.600Z,99.90
2019-05-30T20:07:41.355Z,99.90
2019-05-30T20:10:11.669Z,99.90
2019-05-30T20:12:41.084Z,99.90
2019-05-30T20:15:11.971Z,99.90
2019-05-30T20:17:41.882Z,99.90
2019-05-30T20:20:11.325Z,99.90
2019-05-30T20:22:40.198Z,99.90
2019-05-30T20:25:09.936Z,99.90
2019-05-30T20:27:39.071Z,99.90
2019-05-30T20:30:10.170Z,99.90
2019-05-30T20:32:38.979Z,99.90
2019-05-30T20:35:08.069Z,99.90
2019-05-30T20:37:36.843Z,99.90
2019-05-30T20:40:07.269Z,99.90
2019-05-30T20:42:36.701Z,99.90
2019-05-30T20:45:10.232Z,99.90
2019-05-30T20:47:40.809Z,99.90
2019-05-30T20:50:12.864Z,99.90
2019-05-30T20:52:45.293Z,99.90
2019-05-30T20:55:13.313Z,99.90
2019-05-30T20:57:42.542Z,99.90
2019-05-30T21:00:13.155Z,99.90
2019-05-30T21:02:43.512Z,99.90
2019-05-30T21:05:13.914Z,99.90
2019-05-30T21:07:44.316Z,99.90
2019-05-30T21:10:15.230Z,99.90
2019-05-30T21:12:48.973Z,99.90
2019-05-30T21:15:17.387Z,99.90
2019-05-30T21:17:47.058Z,99.90
2019-05-30T21:20:16.078Z,99.90
2019-05-30T21:22:44.824Z,99.90
2019-05-30T21:25:14.202Z,99.90
2019-05-30T21:27:42.974Z,99.90
2019-05-30T21:30:12.324Z,99.90
2019-05-30T21:32:42.079Z,99.90
2019-05-30T21:35:11.717Z,99.90
2019-05-30T21:37:41.739Z,99.90
2019-05-30T21:40:10.864Z,99.90
2019-05-30T21:42:55.673Z,99.90
2019-05-30T21:45:09.808Z,99.90
2019-05-30T21:47:38.762Z,99.90
2019-05-30T21:50:09.048Z,99.90
2019-05-30T21:52:37.750Z,99.90
2019-05-30T21:55:07.698Z,99.90
2019-05-30T21:57:36.405Z,99.90
2019-05-30T22:00:15.736Z,99.90
2019-05-30T22:02:53.352Z,99.90
2019-05-30T22:05:22.261Z,99.90
2019-05-30T22:07:51.234Z,99.90
2019-05-30T22:10:19.804Z,99.90
2019-05-30T22:12:48.252Z,99.90
2019-05-30T22:15:17.030Z,99.90
2019-05-30T22:17:45.806Z,99.90
2019-05-30T22:20:14.873Z,99.90
2019-05-30T22:22:43.888Z,99.90
2019-05-30T22:25:33.385Z,99.90
2019-05-30T22:28:01.816Z,99.90
2019-05-30T22:30:52.853Z,99.90
2019-05-30T22:33:21.715Z,99.90
2019-05-30T22:35:50.998Z,99.90
2019-05-30T22:38:19.486Z,99.90
2019-05-30T22:40:47.976Z,99.90
2019-05-30T22:43:24.795Z,99.90
2019-05-30T22:45:46.652Z,99.90
2019-05-30T22:48:15.369Z,99.90
2019-05-30T22:50:44.745Z,99.90
2019-05-30T22:53:13.223Z,99.90
2019-05-30T22:55:41.643Z,99.90
2019-05-30T22:58:10.079Z,99.90
2019-05-30T23:00:38.839Z,99.90
2019-05-30T23:03:07.297Z,99.90
2019-05-30T23:05:37.771Z,99.90
2019-05-30T23:08:06.228Z,99.90
2019-05-30T23:10:36.622Z,99.90
2019-05-30T23:13:11.432Z,99.90
2019-05-30T23:15:39.924Z,99.90
2019-05-30T23:18:08.364Z,99.90
2019-05-30T23:20:36.832Z,99.90
2019-05-30T23:23:05.344Z,99.90
2019-05-30T23:25:33.767Z,99.90
2019-05-30T23:28:02.228Z,99.90
2019-05-30T23:30:32.840Z,99.90
2019-05-30T23:33:01.276Z,99.90
2019-05-30T23:35:29.992Z,99.90
2019-05-30T23:37:58.842Z,99.90
2019-05-30T23:40:27.453Z,99.90
2019-05-30T23:42:57.136Z,99.90
2019-05-30T23:45:26.672Z,99.90
2019-05-30T23:47:55.542Z,99.90
2019-05-30T23:50:24.413Z,99.90
2019-05-30T23:52:53.983Z,99.90
2019-05-30T23:55:23.012Z,99.90
2019-05-30T23:57:58.638Z,99.90
